Time;durP1;ratioP1;P1;durP2;ratioP2;P2;SDS_P1;SDS_P2;PMS_P1;PMS_P2;Temp;Humidity;BMP_temperature;BMP_pressure;BME280_temperature;BME280_humidity;BME280_pressure;Samples;Min_cycle;Max_cycle;Signal;HPM_P1;HPM_P2
2022/12/04 00:02:14;;;;;;;60.87;43.43;;;0.80;99.90;;;;;;5088686;28;20060;-78
2022/12/04 00:04:40;;;;;;;56.73;42.90;;;0.80;99.90;;;;;;5066619;28;20040;-78
2022/12/04 00:07:06;;;;;;;61.00;43.07;;;0.80;99.90;;;;;;5067581;28;20044;-78
2022/12/04 00:09:31;;;;;;;59.17;42.40;;;0.80;99.90;;;;;;5084148;28;20095;-78
2022/12/04 00:11:57;;;;;;;57.37;41.87;;;0.90;99.90;;;;;;5050819;28;20039;-78
2022/12/04 00:14:23;;;;;;;56.80;41.67;;;0.80;99.90;;;;;;5085800;28;20048;-78
2022/12/04 00:16:49;;;;;;;56.73;42.03;;;0.80;99.90;;;;;;5100760;28;20497;-78
2022/12/04 00:19:15;;;;;;;57.73;42.60;;;0.80;99.90;;;;;;5065644;28;20502;-75
2022/12/04 00:21:41;;;;;;;57.37;42.20;;;0.90;99.90;;;;;;5083190;28;20071;-75
2022/12/04 00:24:07;;;;;;;55.87;41.73;;;0.90;99.90;;;;;;5077036;28;20059;-74
2022/12/04 00:26:33;;;;;;;59.50;43.40;;;0.90;99.90;;;;;;5083179;28;20035;-75
2022/12/04 00:28:59;;;;;;;59.60;43.17;;;0.90;99.90;;;;;;5083499;28;20092;-74
2022/12/04 00:31:27;;;;;;;56.27;43.03;;;0.90;99.90;;;;;;5052653;28;20039;-75
2022/12/04 00:33:53;;;;;;;57.80;43.00;;;1.10;99.90;;;;;;5098731;28;20070;-74
2022/12/04 00:36:22;;;;;;;59.37;41.87;;;1.00;99.90;;;;;;5086896;28;20039;-75
2022/12/04 00:38:48;;;;;;;59.70;43.77;;;1.00;99.90;;;;;;5101250;28;20521;-75
2022/12/04 00:41:20;;;;;;;57.17;41.57;;;1.00;99.90;;;;;;5067457;28;20044;-75
2022/12/04 00:43:46;;;;;;;56.27;41.10;;;1.00;99.90;;;;;;5097166;28;20052;-74
2022/12/04 00:46:12;;;;;;;56.93;41.63;;;1.10;99.90;;;;;;5102792;28;20049;-75
2022/12/04 00:48:39;;;;;;;57.20;42.17;;;1.00;99.90;;;;;;5080005;28;20394;-74
2022/12/04 00:51:07;;;;;;;58.63;43.00;;;1.00;99.90;;;;;;5102652;28;20051;-75
2022/12/04 00:53:34;;;;;;;55.50;42.23;;;1.00;99.90;;;;;;5098749;28;20482;-75
2022/12/04 00:56:07;;;;;;;58.60;43.20;;;0.90;99.90;;;;;;5069125;28;20146;-75
2022/12/04 00:58:33;;;;;;;58.00;41.37;;;1.00;99.90;;;;;;5096638;28;20039;-74
2022/12/04 01:01:04;;;;;;;57.43;42.03;;;1.00;99.90;;;;;;5080749;28;20092;-74
2022/12/04 01:03:30;;;;;;;57.77;42.93;;;0.90;99.90;;;;;;5096490;28;20487;-74
2022/12/04 01:05:56;;;;;;;54.43;41.00;;;0.90;99.90;;;;;;5080898;28;20077;-74
2022/12/04 01:08:22;;;;;;;58.47;43.27;;;0.90;99.90;;;;;;5082509;28;21007;-74
2022/12/04 01:10:48;;;;;;;62.93;43.10;;;0.90;99.90;;;;;;5057030;28;20051;-74
2022/12/04 01:13:13;;;;;;;59.60;43.30;;;0.90;99.90;;;;;;5081640;28;20058;-74
2022/12/04 01:15:42;;;;;;;54.77;41.33;;;0.90;99.90;;;;;;5081139;28;20519;-74
2022/12/04 01:18:09;;;;;;;58.37;43.40;;;0.90;99.90;;;;;;5075912;28;20040;-74
2022/12/04 01:20:36;;;;;;;58.37;43.10;;;0.90;99.90;;;;;;5064040;28;20066;-74
2022/12/04 01:23:02;;;;;;;57.67;42.90;;;0.90;99.90;;;;;;5087009;28;20714;-74
2022/12/04 01:25:27;;;;;;;58.40;41.50;;;0.90;99.90;;;;;;5079467;28;20031;-74
2022/12/04 01:27:53;;;;;;;55.67;41.20;;;0.90;99.90;;;;;;5093378;28;20081;-73
2022/12/04 01:30:19;;;;;;;61.27;45.43;;;0.90;99.90;;;;;;5093197;28;20074;-74
2022/12/04 01:32:45;;;;;;;59.43;43.10;;;0.90;99.90;;;;;;5083720;28;20100;-74
2022/12/04 01:35:11;;;;;;;58.37;42.33;;;0.90;99.90;;;;;;5064960;28;20054;-74
2022/12/04 01:37:36;;;;;;;60.33;44.60;;;0.90;99.90;;;;;;5065614;28;20520;-74
2022/12/04 01:40:06;;;;;;;63.20;44.97;;;0.90;99.90;;;;;;5061904;28;20035;-74
2022/12/04 01:42:33;;;;;;;58.35;44.15;;;0.80;99.90;;;;;;5103207;27;20075;-73
2022/12/04 01:45:30;;;;;;;60.17;43.53;;;0.80;99.90;;;;;;5095274;28;20532;-74
2022/12/04 01:48:01;;;;;;;59.60;43.97;;;0.90;99.90;;;;;;5080749;28;20040;-75
2022/12/04 01:50:28;;;;;;;60.83;45.50;;;0.80;99.90;;;;;;5083497;28;20379;-74
2022/12/04 01:52:54;;;;;;;62.73;44.90;;;0.90;99.90;;;;;;5071297;28;20052;-74
2022/12/04 01:55:19;;;;;;;63.33;45.37;;;0.80;99.90;;;;;;5096963;28;20040;-74
2022/12/04 01:57:45;;;;;;;61.23;45.07;;;0.80;99.90;;;;;;5079074;28;20044;-75
2022/12/04 02:00:14;;;;;;;61.73;45.77;;;0.80;99.90;;;;;;5083046;28;20178;-74
2022/12/04 02:02:45;;;;;;;61.47;44.93;;;0.80;99.90;;;;;;5090894;28;20545;-74
2022/12/04 02:05:14;;;;;;;62.80;46.27;;;0.80;99.90;;;;;;5097223;28;20177;-74
2022/12/04 02:07:42;;;;;;;60.60;45.77;;;0.80;99.90;;;;;;5095770;28;20054;-74
2022/12/04 02:10:10;;;;;;;63.53;44.87;;;0.80;99.90;;;;;;5095428;28;20531;-73
2022/12/04 02:12:42;;;;;;;59.97;45.40;;;0.80;99.90;;;;;;5078968;28;20047;-74
2022/12/04 02:15:15;;;;;;;61.53;44.50;;;0.80;99.90;;;;;;5095820;28;20059;-73
2022/12/04 02:17:53;;;;;;;63.60;46.73;;;0.80;99.90;;;;;;5080442;28;20063;-74
2022/12/04 02:20:34;;;;;;;64.63;46.50;;;0.80;99.90;;;;;;5089914;28;20074;-74
2022/12/04 02:23:15;;;;;;;59.87;44.83;;;0.80;99.90;;;;;;5089375;28;20043;-74
2022/12/04 02:26:11;;;;;;;61.40;45.13;;;0.70;99.90;;;;;;5094028;28;20481;-74
2022/12/04 02:28:57;;;;;;;64.00;48.10;;;0.80;99.90;;;;;;5095061;28;21266;-74
2022/12/04 02:31:49;;;;;;;59.27;45.73;;;0.80;99.90;;;;;;5105284;27;20422;-75
2022/12/04 02:34:21;;;;;;;57.90;44.20;;;0.80;99.90;;;;;;5088085;28;20047;-75
2022/12/04 02:36:52;;;;;;;64.30;46.93;;;0.80;99.90;;;;;;5081372;28;20495;-75
2022/12/04 02:39:27;;;;;;;65.73;48.60;;;0.80;99.90;;;;;;5095699;28;20063;-74
2022/12/04 02:42:13;;;;;;;59.63;45.60;;;0.80;99.90;;;;;;5097640;28;20130;-74
2022/12/04 02:44:56;;;;;;;63.60;46.87;;;0.80;99.90;;;;;;5101545;28;20035;-75
2022/12/04 02:47:24;;;;;;;61.20;46.03;;;0.80;99.90;;;;;;5081646;28;20506;-74
2022/12/04 02:49:57;;;;;;;64.83;47.57;;;0.70;99.90;;;;;;5097402;27;20540;-74
2022/12/04 02:52:38;;;;;;;62.70;46.90;;;0.70;99.90;;;;;;5101215;28;20039;-74
2022/12/04 02:55:16;;;;;;;66.77;47.60;;;0.80;99.90;;;;;;5098051;28;20047;-74
2022/12/04 02:57:47;;;;;;;61.37;46.43;;;0.80;99.90;;;;;;5089495;28;20052;-74
2022/12/04 03:00:14;;;;;;;64.47;47.63;;;0.70;99.90;;;;;;5090646;28;20086;-76
2022/12/04 03:02:43;;;;;;;61.70;47.33;;;0.70;99.90;;;;;;5088144;28;20044;-74
2022/12/04 03:05:14;;;;;;;64.00;48.75;;;0.80;99.90;;;;;;5102630;27;20532;-74
2022/12/04 03:07:56;;;;;;;64.63;49.50;;;0.70;99.90;;;;;;5092849;28;20506;-73
2022/12/04 03:10:30;;;;;;;61.83;48.37;;;0.70;99.90;;;;;;5094879;28;20490;-75
2022/12/04 03:13:07;;;;;;;65.23;48.50;;;0.70;99.90;;;;;;5094426;28;20126;-74
2022/12/04 03:15:40;;;;;;;64.27;49.53;;;0.70;99.90;;;;;;5102605;28;20047;-74
2022/12/04 03:18:45;;;;;;;62.63;47.83;;;0.60;99.90;;;;;;5084495;28;20471;-74
2022/12/04 03:21:18;;;;;;;66.90;50.30;;;0.60;99.90;;;;;;5062553;28;20141;-73
2022/12/04 03:23:53;;;;;;;66.23;50.60;;;0.60;99.90;;;;;;5078403;28;20047;-74
2022/12/04 03:26:56;;;;;;;64.03;48.80;;;0.60;99.90;;;;;;5090782;28;20374;-74
2022/12/04 03:29:31;;;;;;;71.00;50.57;;;0.60;99.90;;;;;;5085402;28;20047;-74
2022/12/04 03:32:09;;;;;;;68.50;51.77;;;0.60;99.90;;;;;;5090793;28;20506;-74
2022/12/04 03:34:57;;;;;;;68.40;51.57;;;0.60;99.90;;;;;;5094202;28;20043;-74
2022/12/04 03:37:32;;;;;;;67.67;50.20;;;0.60;99.90;;;;;;5105090;27;20043;-74
2022/12/04 03:40:10;;;;;;;66.53;49.93;;;0.60;99.90;;;;;;5085023;28;20035;-74
2022/12/04 03:42:43;;;;;;;76.60;51.80;;;0.50;99.90;;;;;;5101307;28;20044;-74
2022/12/04 03:45:16;;;;;;;70.33;52.77;;;0.50;99.90;;;;;;5092169;28;21003;-74
2022/12/04 03:48:08;;;;;;;66.10;50.60;;;0.50;99.90;;;;;;5104637;28;20043;-74
2022/12/04 03:50:47;;;;;;;69.53;52.57;;;0.50;99.90;;;;;;5095910;28;20047;-74
2022/12/04 03:53:19;;;;;;;69.13;52.20;;;0.50;99.90;;;;;;5102469;28;20618;-75
2022/12/04 03:55:53;;;;;;;71.70;54.13;;;0.50;99.90;;;;;;5092999;28;20244;-74
2022/12/04 03:58:28;;;;;;;67.40;52.20;;;0.50;99.90;;;;;;5098393;27;20334;-74
2022/12/04 04:00:59;;;;;;;71.17;52.50;;;0.50;99.90;;;;;;5080035;28;20076;-75
2022/12/04 04:03:37;;;;;;;71.67;54.07;;;0.50;99.90;;;;;;5115010;27;20040;-74
2022/12/04 04:06:24;;;;;;;73.63;52.60;;;0.50;99.90;;;;;;5101467;28;20131;-74
2022/12/04 04:08:55;;;;;;;71.90;54.80;;;0.50;99.90;;;;;;5118269;27;20730;-75
2022/12/04 04:11:31;;;;;;;70.17;53.43;;;0.50;99.90;;;;;;5083021;28;20100;-75
2022/12/04 04:25:25;;;;;;;72.80;53.37;;;0.50;99.90;;;;;;5070193;28;20055;-75
2022/12/04 04:27:55;;;;;;;71.53;54.07;;;0.50;99.90;;;;;;5098571;28;20142;-76
2022/12/04 04:30:25;;;;;;;68.13;51.85;;;0.50;99.90;;;;;;5081292;28;20036;-75
2022/12/04 04:32:57;;;;;;;71.88;53.15;;;0.40;99.90;;;;;;5101029;28;20081;-70
2022/12/04 04:35:38;;;;;;;69.13;52.43;;;0.40;99.90;;;;;;5094902;27;20039;-72
2022/12/04 04:38:06;;;;;;;74.20;55.47;;;0.40;99.90;;;;;;5094265;28;20047;-70
2022/12/04 04:40:32;;;;;;;74.00;54.03;;;0.40;99.90;;;;;;5096421;28;20118;-67
2022/12/04 04:43:08;;;;;;;72.67;55.07;;;0.50;99.90;;;;;;5080380;28;20589;-68
2022/12/04 04:45:48;;;;;;;70.67;52.97;;;0.40;99.90;;;;;;5080663;28;20047;-68
2022/12/04 04:48:22;;;;;;;72.40;54.25;;;0.40;99.90;;;;;;5097724;28;20388;-67
2022/12/04 04:50:49;;;;;;;70.30;52.73;;;0.40;99.90;;;;;;5097156;28;20040;-67
2022/12/04 04:53:20;;;;;;;69.67;53.57;;;0.40;99.90;;;;;;5081682;28;20228;-67
2022/12/04 04:55:46;;;;;;;70.20;53.20;;;0.40;99.90;;;;;;5099402;28;20063;-69
2022/12/04 04:58:16;;;;;;;71.37;53.30;;;0.40;99.90;;;;;;5082796;28;20120;-69
2022/12/04 05:01:10;;;;;;;71.07;52.83;;;0.40;99.90;;;;;;5096053;28;20055;-68
2022/12/04 05:03:35;;;;;;;69.60;53.10;;;0.50;99.90;;;;;;5080210;28;20405;-68
2022/12/04 05:06:01;;;;;;;70.23;52.53;;;0.40;99.90;;;;;;5100684;28;20047;-68
2022/12/04 05:08:27;;;;;;;72.27;51.97;;;0.40;99.90;;;;;;5076517;28;20127;-68
2022/12/04 05:10:52;;;;;;;69.50;50.70;;;0.40;99.90;;;;;;5069603;28;20045;-69
2022/12/04 05:13:19;;;;;;;71.53;53.43;;;0.40;99.90;;;;;;5090379;28;20120;-68
2022/12/04 05:16:00;;;;;;;67.63;51.60;;;0.40;99.90;;;;;;5101310;28;20039;-68
2022/12/04 05:18:27;;;;;;;67.70;50.47;;;0.40;99.90;;;;;;5061500;28;20047;-68
2022/12/04 05:20:53;;;;;;;71.33;53.10;;;0.40;99.90;;;;;;5082754;28;20188;-73
2022/12/04 05:23:18;;;;;;;67.77;51.63;;;0.40;99.90;;;;;;5077107;28;20967;-74
2022/12/04 05:25:44;;;;;;;66.90;50.97;;;0.40;99.90;;;;;;5095356;27;20096;-74
2022/12/04 05:28:10;;;;;;;70.90;52.30;;;0.40;99.90;;;;;;5092694;28;20494;-74
2022/12/04 05:30:36;;;;;;;72.43;53.93;;;0.40;99.90;;;;;;5081482;28;20036;-74
2022/12/04 05:33:01;;;;;;;70.47;52.83;;;0.50;99.90;;;;;;5074413;28;20093;-75
2022/12/04 05:35:27;;;;;;;67.57;51.93;;;0.40;99.90;;;;;;5098528;27;20451;-74
2022/12/04 05:37:53;;;;;;;67.07;50.80;;;0.40;99.90;;;;;;5089975;28;20051;-75
2022/12/04 05:40:19;;;;;;;68.07;52.03;;;0.40;99.90;;;;;;5083730;28;20086;-75
2022/12/04 05:42:45;;;;;;;67.23;52.07;;;0.40;99.90;;;;;;5086201;28;20469;-75
2022/12/04 05:45:10;;;;;;;71.30;52.47;;;0.40;99.90;;;;;;5091926;28;20406;-75
2022/12/04 05:47:41;;;;;;;67.57;50.63;;;0.40;99.90;;;;;;5073590;28;20116;-75
2022/12/04 05:50:07;;;;;;;;;;;0.40;99.90;;;;;;5082678;27;20051;-74
2022/12/04 05:52:33;;;;;;;67.23;50.23;;;0.40;99.90;;;;;;5085843;28;19920;-75
2022/12/04 05:54:59;;;;;;;66.13;50.63;;;0.40;99.90;;;;;;5097847;28;20062;-75
2022/12/04 05:57:25;;;;;;;69.40;50.27;;;0.50;99.90;;;;;;5077516;27;20127;-75
2022/12/04 05:59:50;;;;;;;66.27;50.60;;;0.40;99.90;;;;;;5088275;28;20043;-75
2022/12/04 06:02:16;;;;;;;67.57;50.00;;;0.50;99.90;;;;;;5080183;28;20290;-75
2022/12/04 06:04:42;;;;;;;66.67;51.07;;;0.40;99.90;;;;;;5090123;28;20039;-74
2022/12/04 06:07:09;;;;;;;69.60;51.57;;;0.50;99.90;;;;;;5094082;28;20047;-76
2022/12/04 06:09:36;;;;;;;64.40;48.50;;;0.50;99.90;;;;;;5098768;28;20040;-74
2022/12/04 06:12:02;;;;;;;66.23;48.87;;;0.50;99.90;;;;;;5073896;28;20699;-75
2022/12/04 06:14:28;;;;;;;66.50;49.57;;;0.50;99.90;;;;;;5089139;28;20046;-75
2022/12/04 06:16:54;;;;;;;65.17;48.97;;;0.50;99.90;;;;;;5100700;28;20051;-75
2022/12/04 06:19:21;;;;;;;67.00;49.57;;;0.40;99.90;;;;;;5091504;28;20841;-74
2022/12/04 06:21:48;;;;;;;70.03;50.10;;;0.50;99.90;;;;;;5047638;28;20043;-75
2022/12/04 06:24:17;;;;;;;66.10;49.00;;;0.50;99.90;;;;;;5083271;28;20055;-74
2022/12/04 06:26:44;;;;;;;66.13;48.83;;;0.50;99.90;;;;;;5081965;28;20246;-74
2022/12/04 06:29:11;;;;;;;65.50;49.87;;;0.50;99.90;;;;;;5082347;28;20051;-75
2022/12/04 06:31:37;;;;;;;65.83;49.20;;;0.50;99.90;;;;;;5098379;28;20490;-74
2022/12/04 06:34:04;;;;;;;66.13;49.77;;;0.50;99.90;;;;;;5079706;28;20047;-75
2022/12/04 06:36:30;;;;;;;65.63;49.43;;;0.50;99.90;;;;;;5079416;28;20051;-75
2022/12/04 06:38:56;;;;;;;68.93;50.23;;;0.50;99.90;;;;;;5074238;28;20447;-73
2022/12/04 06:41:24;;;;;;;63.83;47.40;;;0.50;99.90;;;;;;5079761;28;20401;-74
2022/12/04 06:43:50;;;;;;;67.23;49.80;;;0.50;99.90;;;;;;5084275;28;20043;-74
2022/12/04 06:46:28;;;;;;;67.57;49.97;;;0.50;99.90;;;;;;5087327;28;20054;-75
2022/12/04 06:48:55;;;;;;;66.50;49.50;;;0.50;99.90;;;;;;5090060;28;20051;-75
2022/12/04 06:51:30;;;;;;;66.70;49.00;;;0.50;99.90;;;;;;5066861;28;20044;-74
2022/12/04 06:53:56;;;;;;;69.23;50.23;;;0.50;99.90;;;;;;5087641;28;20079;-75
2022/12/04 06:56:25;;;;;;;66.60;48.67;;;0.50;99.90;;;;;;5099896;28;20501;-75
2022/12/04 06:58:54;;;;;;;69.73;49.97;;;0.50;99.90;;;;;;5109013;27;20044;-75
2022/12/04 07:01:23;;;;;;;71.67;51.00;;;0.40;99.90;;;;;;5091383;28;20062;-75
2022/12/04 07:03:49;;;;;;;74.67;51.97;;;0.50;99.90;;;;;;5093313;28;20480;-76
2022/12/04 07:06:15;;;;;;;69.87;50.70;;;0.40;99.90;;;;;;5064689;28;20079;-74
2022/12/04 07:08:42;;;;;;;74.53;52.47;;;0.40;99.90;;;;;;5090768;28;20117;-74
2022/12/04 07:11:07;;;;;;;74.57;52.00;;;0.40;99.90;;;;;;5072524;28;20040;-74
2022/12/04 07:13:33;;;;;;;72.90;51.27;;;0.40;99.90;;;;;;5077111;28;20244;-75
2022/12/04 07:16:01;;;;;;;80.00;54.27;;;0.40;99.90;;;;;;5072483;28;20055;-74
2022/12/04 07:18:28;;;;;;;78.60;54.47;;;0.30;99.90;;;;;;5088692;28;20661;-74
2022/12/04 07:20:54;;;;;;;75.57;52.33;;;0.30;99.90;;;;;;5092083;28;20073;-74
2022/12/04 07:23:20;;;;;;;78.23;52.43;;;0.30;99.90;;;;;;5076326;28;20388;-74
2022/12/04 07:25:46;;;;;;;80.37;54.93;;;0.30;99.90;;;;;;5090961;28;20044;-74
2022/12/04 07:28:12;;;;;;;79.40;54.10;;;0.20;99.90;;;;;;5063084;28;20039;-75
2022/12/04 07:30:38;;;;;;;81.10;54.67;;;0.30;99.90;;;;;;5094203;28;20189;-75
2022/12/04 07:33:04;;;;;;;77.33;55.23;;;0.30;99.90;;;;;;5095936;28;20047;-75
2022/12/04 07:35:30;;;;;;;79.77;54.77;;;0.30;99.90;;;;;;5080143;28;20474;-75
2022/12/04 07:37:56;;;;;;;82.53;55.20;;;0.30;99.90;;;;;;5101689;28;20570;-75
2022/12/04 07:40:21;;;;;;;84.80;56.90;;;0.30;99.90;;;;;;5081950;28;20334;-74
2022/12/04 07:42:47;;;;;;;85.47;56.83;;;0.40;99.90;;;;;;5069519;28;20425;-75
2022/12/04 07:45:13;;;;;;;82.73;55.67;;;0.40;99.90;;;;;;5067929;28;20125;-75
2022/12/04 07:47:39;;;;;;;84.77;56.37;;;0.30;99.90;;;;;;5099786;28;20430;-75
2022/12/04 07:50:05;;;;;;;83.80;57.10;;;0.40;99.90;;;;;;5065802;28;20040;-75
2022/12/04 07:52:36;;;;;;;88.13;57.83;;;0.30;99.90;;;;;;5067121;28;20044;-75
2022/12/04 07:55:03;;;;;;;87.83;56.47;;;0.30;99.90;;;;;;5084409;28;20043;-75
2022/12/04 07:57:32;;;;;;;85.87;57.17;;;0.30;99.90;;;;;;5063095;28;20079;-75
2022/12/04 07:59:58;;;;;;;86.73;56.43;;;0.40;99.90;;;;;;5082311;28;20126;-74
2022/12/04 08:02:26;;;;;;;83.47;56.57;;;0.40;99.90;;;;;;5082557;28;20082;-74
2022/12/04 08:04:52;;;;;;;85.17;57.07;;;0.40;99.90;;;;;;5100284;28;20078;-75
2022/12/04 08:07:18;;;;;;;84.17;56.50;;;0.30;99.90;;;;;;5081219;28;20255;-75
2022/12/04 08:09:43;;;;;;;84.10;55.93;;;0.50;99.90;;;;;;5083995;28;20046;-75
2022/12/04 08:12:10;;;;;;;87.50;56.97;;;0.40;99.90;;;;;;5081716;28;20443;-75
2022/12/04 08:14:35;;;;;;;84.53;55.97;;;0.40;99.90;;;;;;5069299;28;20555;-75
2022/12/04 08:17:01;;;;;;;80.67;56.50;;;0.40;99.90;;;;;;5065806;28;20595;-75
2022/12/04 08:19:27;;;;;;;82.60;54.43;;;0.40;99.90;;;;;;5051910;28;20745;-75
2022/12/04 08:21:54;;;;;;;83.90;56.37;;;0.40;99.90;;;;;;5082839;28;20032;-75
2022/12/04 08:24:20;;;;;;;84.97;57.03;;;0.40;99.90;;;;;;5086818;28;20445;-75
2022/12/04 08:26:46;;;;;;;83.73;55.23;;;0.40;99.90;;;;;;5066219;27;20051;-75
2022/12/04 08:29:11;;;;;;;87.50;58.00;;;0.40;99.90;;;;;;5101856;27;20462;-75
2022/12/04 08:31:37;;;;;;;85.87;58.30;;;0.50;99.90;;;;;;5093884;28;20701;-75
2022/12/04 08:34:06;;;;;;;82.43;57.10;;;0.40;99.90;;;;;;5084736;28;20053;-75
2022/12/04 08:36:33;;;;;;;85.27;56.17;;;0.50;99.90;;;;;;5079583;28;20096;-75
2022/12/04 08:38:59;;;;;;;81.53;55.03;;;0.50;99.90;;;;;;5079654;28;20048;-75
2022/12/04 08:41:26;;;;;;;84.77;57.43;;;0.50;99.90;;;;;;5100223;28;20216;-75
2022/12/04 08:43:54;;;;;;;83.37;57.00;;;0.50;99.90;;;;;;5082334;28;20047;-76
2022/12/04 08:46:20;;;;;;;88.97;56.63;;;0.60;99.90;;;;;;5099522;28;20088;-75
2022/12/04 08:48:46;;;;;;;87.83;56.80;;;0.60;99.90;;;;;;5101716;28;20039;-75
2022/12/04 08:51:14;;;;;;;84.97;56.60;;;0.60;99.90;;;;;;5080292;28;20031;-75
2022/12/04 08:53:40;;;;;;;86.80;57.93;;;0.60;99.90;;;;;;5096922;28;20036;-74
2022/12/04 08:56:06;;;;;;;86.73;56.87;;;0.60;99.90;;;;;;5095361;28;20051;-74
2022/12/04 08:58:32;;;;;;;83.87;56.93;;;0.60;99.90;;;;;;5082413;28;20046;-75
2022/12/04 09:01:09;;;;;;;88.93;55.83;;;0.60;99.90;;;;;;5082010;28;20066;-75
2022/12/04 09:03:35;;;;;;;88.10;57.33;;;0.70;99.90;;;;;;5083686;28;20471;-75
2022/12/04 09:06:04;;;;;;;85.83;56.13;;;0.70;99.90;;;;;;5093131;28;20118;-76
2022/12/04 09:08:30;;;;;;;83.20;57.13;;;0.70;99.90;;;;;;5098439;28;20043;-76
2022/12/04 09:11:06;;;;;;;81.33;55.73;;;0.70;99.90;;;;;;5094119;28;20050;-76
2022/12/04 09:13:32;;;;;;;84.17;56.30;;;0.80;99.90;;;;;;5094160;28;20043;-76
2022/12/04 09:16:06;;;;;;;84.07;56.73;;;0.80;99.90;;;;;;5061223;28;20040;-76
2022/12/04 09:18:32;;;;;;;84.53;57.43;;;0.80;99.90;;;;;;5094754;28;20040;-76
2022/12/04 09:21:00;;;;;;;83.07;54.77;;;0.80;99.90;;;;;;5082076;28;20239;-75
2022/12/04 09:23:26;;;;;;;80.20;54.87;;;0.90;99.90;;;;;;5091929;28;20577;-76
2022/12/04 09:25:53;;;;;;;75.57;52.63;;;0.90;99.90;;;;;;5089541;28;20044;-76
2022/12/04 09:28:19;;;;;;;76.67;54.27;;;0.90;99.90;;;;;;5048653;28;20051;-76
2022/12/04 09:30:45;;;;;;;77.37;54.97;;;0.90;99.90;;;;;;5072179;28;20100;-76
2022/12/04 09:33:13;;;;;;;77.90;54.87;;;1.00;99.90;;;;;;5070782;28;20155;-76
2022/12/04 09:35:38;;;;;;;80.30;55.20;;;1.00;99.90;;;;;;5086282;28;20047;-76
2022/12/04 09:38:04;;;;;;;81.70;54.73;;;1.00;99.90;;;;;;5091836;27;20498;-76
2022/12/04 09:40:46;;;;;;;81.13;55.20;;;1.00;99.90;;;;;;5076925;28;20051;-76
2022/12/04 09:43:31;;;;;;;74.77;52.83;;;1.00;99.90;;;;;;5081710;28;20559;-76
2022/12/04 09:46:08;;;;;;;81.53;56.57;;;1.10;99.90;;;;;;5075502;28;20427;-76
2022/12/04 09:48:38;;;;;;;72.30;51.93;;;1.00;99.90;;;;;;5088118;28;20054;-75
2022/12/04 09:51:15;;;;;;;76.70;53.75;;;1.10;99.90;;;;;;5095393;27;20422;-75
2022/12/04 09:53:46;;;;;;;75.43;53.33;;;1.10;99.90;;;;;;5103957;27;20491;-75
2022/12/04 09:56:18;;;;;;;69.43;50.67;;;1.10;99.90;;;;;;5085378;28;20313;-75
2022/12/04 09:59:18;;;;;;;69.60;51.60;;;1.20;99.90;;;;;;5089150;28;20044;-75
2022/12/04 10:02:16;;;;;;;70.80;51.00;;;1.20;99.90;;;;;;5078802;28;20059;-75
2022/12/04 10:04:42;;;;;;;67.43;49.93;;;1.20;99.90;;;;;;5082721;28;20286;-75
2022/12/04 10:07:19;;;;;;;69.20;50.07;;;1.10;99.90;;;;;;5063164;28;20089;-75
2022/12/04 10:09:52;;;;;;;65.93;48.73;;;1.20;99.90;;;;;;5087939;28;20051;-74
2022/12/04 10:12:22;;;;;;;66.50;50.07;;;1.20;99.90;;;;;;5102065;27;21121;-75
2022/12/04 10:14:59;;;;;;;64.82;47.88;;;1.20;99.90;;;;;;5068035;28;20354;-75
2022/12/04 10:17:31;;;;;;;66.63;48.13;;;1.20;99.90;;;;;;5074047;28;20048;-75
2022/12/04 10:20:34;;;;;;;63.13;47.23;;;1.20;99.90;;;;;;5109327;27;20520;-74
2022/12/04 10:23:09;;;;;;;62.63;47.33;;;1.30;99.90;;;;;;5093926;28;20062;-75
2022/12/04 10:25:37;;;;;;;61.80;46.77;;;1.30;99.90;;;;;;5092385;28;20498;-76
2022/12/04 10:28:29;;;;;;;60.47;46.20;;;1.30;99.90;;;;;;5090254;28;20097;-76
2022/12/04 10:30:58;;;;;;;58.97;45.07;;;1.40;99.90;;;;;;5083046;28;20067;-76
2022/12/04 10:33:38;;;;;;;60.57;45.70;;;1.30;99.90;;;;;;5094326;28;20159;-75
2022/12/04 10:36:06;;;;;;;59.55;45.42;;;1.40;99.90;;;;;;5088146;28;20628;-75
2022/12/04 10:38:38;;;;;;;57.90;44.50;;;1.40;99.90;;;;;;5094590;28;20047;-75
2022/12/04 10:41:27;;;;;;;59.00;45.00;;;1.50;99.90;;;;;;5084360;28;20799;-75
2022/12/04 10:43:56;;;;;;;55.80;43.27;;;1.50;99.90;;;;;;5094949;28;20048;-75
2022/12/04 10:46:31;;;;;;;58.23;43.80;;;1.50;99.90;;;;;;5088733;28;20517;-75
2022/12/04 10:49:20;;;;;;;56.10;43.73;;;1.50;99.90;;;;;;5084231;28;20071;-74
2022/12/04 10:51:47;;;;;;;54.23;43.37;;;1.60;99.90;;;;;;5098668;28;20058;-74
2022/12/04 10:54:15;;;;;;;55.43;43.00;;;1.60;99.90;;;;;;5055545;28;20051;-75
2022/12/04 10:57:09;;;;;;;55.17;41.70;;;1.60;99.90;;;;;;5098619;27;20062;-75
2022/12/04 10:59:53;;;;;;;50.77;40.63;;;1.70;99.90;;;;;;5083500;28;20051;-76
2022/12/04 11:02:22;;;;;;;49.40;40.30;;;1.70;99.90;;;;;;5105594;27;20036;-75
2022/12/04 11:04:57;;;;;;;50.47;40.73;;;1.70;99.90;;;;;;5092338;28;20547;-75
2022/12/04 11:07:34;;;;;;;51.57;39.57;;;1.80;99.90;;;;;;5087289;28;20386;-74
2022/12/04 11:10:36;;;;;;;49.70;39.37;;;1.80;99.90;;;;;;5094650;28;20055;-70
2022/12/04 11:13:11;;;;;;;48.07;38.87;;;1.90;99.90;;;;;;5088464;28;20075;-68
2022/12/04 11:15:47;;;;;;;44.33;36.03;;;1.90;99.90;;;;;;5092476;28;20135;-68
2022/12/04 11:18:23;;;;;;;46.10;37.13;;;2.00;99.90;;;;;;5075254;28;20050;-68
2022/12/04 11:21:21;;;;;;;45.97;36.87;;;2.00;99.90;;;;;;5096696;28;20132;-68
2022/12/04 11:23:49;;;;;;;44.90;35.53;;;2.20;99.90;;;;;;5090102;28;20174;-69
2022/12/04 11:26:32;;;;;;;41.50;34.27;;;2.20;99.90;;;;;;5070743;28;20039;-68
2022/12/04 11:29:00;;;;;;;38.87;32.80;;;2.20;99.90;;;;;;5094124;27;20062;-69
2022/12/04 11:31:27;;;;;;;40.13;32.77;;;2.30;99.90;;;;;;5091996;28;20040;-69
2022/12/04 11:33:57;;;;;;;33.23;29.40;;;2.30;99.90;;;;;;5100157;28;20050;-69
2022/12/04 11:36:30;;;;;;;37.58;31.00;;;2.40;99.90;;;;;;5089377;28;20051;-69
2022/12/04 11:39:14;;;;;;;33.80;28.77;;;2.40;99.90;;;;;;5073796;28;20054;-69
2022/12/04 11:41:40;;;;;;;35.87;29.60;;;2.50;99.90;;;;;;5078058;28;20046;-69
2022/12/04 11:44:21;;;;;;;33.53;28.57;;;2.50;99.90;;;;;;5088051;28;20094;-69
2022/12/04 11:46:53;;;;;;;34.85;29.40;;;2.40;99.90;;;;;;5091852;28;20047;-69
2022/12/04 11:49:21;;;;;;;34.70;28.63;;;2.40;99.90;;;;;;5095005;27;20047;-69
2022/12/04 11:52:19;;;;;;;34.30;28.93;;;2.40;99.90;;;;;;5088559;28;20050;-69
2022/12/04 11:55:01;;;;;;;33.53;28.63;;;2.40;99.90;;;;;;5091463;28;20040;-75
2022/12/04 11:57:48;;;;;;;35.80;29.83;;;2.40;99.90;;;;;;5072460;28;20040;-75
2022/12/04 12:00:17;;;;;;;33.27;27.57;;;2.30;99.90;;;;;;5083471;28;20044;-75
2022/12/04 12:03:08;;;;;;;34.00;27.77;;;2.30;99.90;;;;;;5090560;27;20055;-75
2022/12/04 12:05:56;;;;;;;34.83;28.83;;;2.30;99.90;;;;;;5110189;27;20059;-75
2022/12/04 12:09:05;;;;;;;36.97;29.60;;;2.40;99.90;;;;;;5103914;27;20074;-75
2022/12/04 12:11:41;;;;;;;37.43;30.07;;;2.40;99.90;;;;;;5073679;28;20044;-75
2022/12/04 12:14:18;;;;;;;37.23;30.83;;;2.40;99.90;;;;;;5079649;28;20097;-75
2022/12/04 12:17:12;;;;;;;33.17;28.97;;;2.30;99.90;;;;;;5090701;28;20728;-75
2022/12/04 12:19:56;;;;;;;36.80;29.60;;;2.40;99.90;;;;;;5084241;28;20447;-75
2022/12/04 12:22:41;;;;;;;36.97;29.67;;;2.40;99.90;;;;;;5071379;28;20044;-75
2022/12/04 12:25:35;;;;;;;33.43;28.37;;;2.40;99.90;;;;;;5076491;28;20049;-76
2022/12/04 12:28:07;;;;;;;36.50;29.17;;;2.40;99.90;;;;;;5094027;27;20043;-76
2022/12/04 12:30:54;;;;;;;33.73;28.17;;;2.40;99.90;;;;;;5089944;28;20097;-76
2022/12/04 12:33:25;;;;;;;35.63;29.20;;;2.40;99.90;;;;;;5078170;28;20181;-76
2022/12/04 12:36:07;;;;;;;37.73;30.17;;;2.40;99.90;;;;;;5093910;28;20047;-76
2022/12/04 12:38:47;;;;;;;36.30;28.53;;;2.40;99.90;;;;;;5095189;28;20051;-75
2022/12/04 12:41:19;;;;;;;;;;;2.40;99.90;;;;;;5071863;28;20042;-69
2022/12/04 12:44:13;;;;;;;33.83;28.43;;;2.40;99.90;;;;;;5077723;28;19946;-69
2022/12/04 12:47:00;;;;;;;32.70;27.03;;;2.40;99.90;;;;;;5081208;28;20051;-70
2022/12/04 12:49:43;;;;;;;33.73;27.63;;;2.40;99.90;;;;;;5098440;27;20035;-70
2022/12/04 12:52:23;;;;;;;32.63;27.37;;;2.40;99.90;;;;;;5067134;28;20483;-69
2022/12/04 12:54:56;;;;;;;34.23;28.00;;;2.40;99.90;;;;;;5088647;27;20098;-70
2022/12/04 12:58:05;;;;;;;33.93;27.90;;;2.50;99.90;;;;;;5071602;28;20047;-69
2022/12/04 13:00:40;;;;;;;32.57;27.07;;;2.50;99.90;;;;;;5094031;28;20113;-69
2022/12/04 13:03:43;;;;;;;33.60;26.97;;;2.50;99.90;;;;;;5107808;27;20506;-68
2022/12/04 13:06:15;;;;;;;31.90;26.90;;;2.40;99.90;;;;;;5069906;28;20101;-69
2022/12/04 13:09:02;;;;;;;32.47;26.57;;;2.50;99.90;;;;;;5089432;28;20044;-70
2022/12/04 13:11:29;;;;;;;32.90;26.57;;;2.50;99.90;;;;;;5104650;27;20145;-70
2022/12/04 13:13:58;;;;;;;32.03;26.77;;;2.60;99.90;;;;;;5095677;28;20448;-76
2022/12/04 13:17:14;;;;;;;35.07;28.13;;;2.60;99.90;;;;;;5091413;28;20101;-76